createdAt,value
2023-04-03T00:01:59.702Z,2.00
2023-04-03T00:04:31.266Z,2.00
2023-04-03T00:07:02.381Z,2.00
2023-04-03T00:09:36.116Z,2.00
2023-04-03T00:12:07.373Z,1.90
2023-04-03T00:14:38.303Z,1.90
2023-04-03T00:17:09.302Z,1.90
2023-04-03T00:19:43.081Z,1.90
2023-04-03T00:22:14.038Z,1.90
2023-04-03T00:24:47.571Z,1.80
2023-04-03T00:27:18.611Z,2.00
2023-04-03T00:29:49.437Z,1.70
2023-04-03T00:32:20.273Z,1.70
2023-04-03T00:34:51.376Z,1.70
2023-04-03T00:37:22.365Z,1.60
2023-04-03T00:39:56.012Z,1.60
2023-04-03T00:42:27.106Z,1.60
2023-04-03T00:45:28.149Z,1.60
2023-04-03T00:48:00.909Z,1.70
2023-04-03T00:50:33.270Z,1.70
2023-04-03T00:53:05.514Z,1.80
2023-04-03T00:55:41.390Z,1.80
2023-04-03T00:58:14.565Z,1.90
2023-04-03T01:00:50.569Z,1.90
2023-04-03T01:03:21.472Z,2.00
2023-04-03T01:05:52.707Z,2.10
2023-04-03T01:08:23.796Z,2.10
2023-04-03T01:10:57.489Z,2.20
2023-04-03T01:13:31.587Z,2.20
2023-04-03T01:16:05.758Z,2.20
2023-04-03T01:18:38.692Z,2.20
2023-04-03T01:21:40.008Z,2.10
2023-04-03T01:24:22.288Z,2.10
2023-04-03T01:26:56.043Z,2.10
2023-04-03T01:29:27.079Z,2.10
2023-04-03T01:32:02.152Z,2.20
2023-04-03T01:34:34.188Z,2.20
2023-04-03T01:37:05.129Z,2.20
2023-04-03T01:39:36.607Z,2.20
2023-04-03T01:42:07.852Z,2.30
2023-04-03T01:44:38.727Z,2.80
2023-04-03T01:47:12.694Z,2.30
2023-04-03T01:49:43.677Z,2.40
2023-04-03T01:52:14.894Z,2.30
2023-04-03T01:54:45.817Z,2.30
2023-04-03T01:57:17.281Z,2.30
2023-04-03T01:59:48.210Z,2.30
2023-04-03T02:02:25.385Z,2.30
2023-04-03T02:04:56.247Z,2.20
2023-04-03T02:07:27.376Z,2.30
2023-04-03T02:09:58.358Z,2.30
2023-04-03T02:12:30.878Z,2.30
2023-04-03T02:15:02.053Z,2.30
2023-04-03T02:17:35.615Z,2.30
2023-04-03T02:20:07.043Z,2.30
2023-04-03T02:22:38.145Z,2.40
2023-04-03T02:25:15.837Z,2.20
2023-04-03T02:27:46.768Z,2.30
2023-04-03T02:30:18.391Z,2.20
2023-04-03T02:32:53.884Z,2.20
2023-04-03T02:35:24.906Z,2.20
2023-04-03T02:37:55.962Z,2.20
2023-04-03T02:40:26.908Z,2.20
2023-04-03T02:42:57.821Z,2.20
2023-04-03T02:45:28.866Z,2.20
2023-04-03T02:48:02.382Z,2.20
2023-04-03T02:50:33.474Z,2.20
2023-04-03T02:53:07.178Z,2.20
2023-04-03T02:55:38.156Z,2.20
2023-04-03T02:58:09.879Z,2.50
2023-04-03T03:00:41.324Z,2.00
2023-04-03T03:03:15.250Z,2.00
2023-04-03T03:05:46.617Z,2.00
2023-04-03T03:08:21.311Z,2.00
2023-04-03T03:10:52.442Z,2.00
2023-04-03T03:13:23.366Z,1.90
2023-04-03T03:15:54.278Z,1.90
2023-04-03T03:18:28.210Z,1.90
2023-04-03T03:21:01.290Z,1.90
2023-04-03T03:23:33.951Z,1.80
2023-04-03T03:26:07.068Z,1.90
2023-04-03T03:28:38.954Z,1.90
2023-04-03T03:31:10.486Z,1.90
2023-04-03T03:33:45.176Z,1.90
2023-04-03T03:36:16.302Z,1.90
2023-04-03T03:38:47.580Z,1.80
2023-04-03T03:41:19.852Z,1.80
2023-04-03T03:43:50.782Z,1.80
2023-04-03T03:46:21.734Z,1.80
2023-04-03T03:48:55.604Z,1.80
2023-04-03T03:51:26.575Z,1.80
2023-04-03T03:53:57.592Z,1.80
2023-04-03T03:56:31.488Z,1.40
2023-04-03T03:59:03.909Z,1.70
2023-04-03T04:01:34.948Z,1.80
2023-04-03T04:04:11.352Z,1.80
2023-04-03T04:06:42.495Z,1.80
2023-04-03T04:09:13.789Z,1.80
2023-04-03T04:11:44.766Z,1.70
2023-04-03T04:14:16.401Z,1.70
2023-04-03T04:16:47.486Z,1.60
2023-04-03T04:19:21.123Z,1.60
2023-04-03T04:21:52.358Z,1.60
2023-04-03T04:24:24.085Z,1.50
2023-04-03T04:26:55.059Z,1.50
2023-04-03T04:29:26.140Z,1.50
2023-04-03T04:31:57.052Z,1.60
2023-04-03T04:34:30.749Z,1.50
2023-04-03T04:37:02.007Z,1.50
2023-04-03T04:39:35.876Z,1.50
2023-04-03T04:42:08.300Z,1.50
2023-04-03T04:44:39.296Z,1.50
2023-04-03T04:47:10.480Z,1.50
2023-04-03T04:49:44.080Z,1.50
2023-04-03T04:52:15.357Z,1.40
2023-04-03T04:54:46.361Z,1.40
2023-04-03T04:57:17.442Z,1.50
2023-04-03T04:59:49.906Z,1.50
2023-04-03T05:02:20.944Z,1.50
2023-04-03T05:04:56.982Z,1.50
2023-04-03T05:07:28.469Z,1.50
2023-04-03T05:09:59.532Z,1.40
2023-04-03T05:12:30.757Z,1.40
2023-04-03T05:15:01.623Z,1.40
2023-04-03T05:17:32.503Z,1.40
2023-04-03T05:20:06.824Z,1.50
2023-04-03T05:22:37.794Z,1.40
2023-04-03T05:25:11.781Z,1.50
2023-04-03T05:27:42.690Z,1.50
2023-04-03T05:30:14.702Z,1.50
2023-04-03T05:32:46.493Z,1.40
2023-04-03T05:35:22.576Z,1.40
2023-04-03T05:37:53.824Z,1.40
2023-04-03T05:40:24.777Z,1.50
2023-04-03T05:42:55.731Z,1.50
2023-04-03T05:45:29.518Z,1.90
2023-04-03T05:48:00.572Z,1.90
2023-04-03T05:50:34.138Z,1.50
2023-04-03T05:53:07.773Z,1.50
2023-04-03T05:55:41.248Z,1.60
2023-04-03T05:58:12.093Z,1.90
2023-04-03T06:00:43.533Z,1.60
2023-04-03T06:03:14.724Z,1.60
2023-04-03T06:05:48.565Z,1.60
2023-04-03T06:08:19.828Z,1.60
2023-04-03T06:10:51.884Z,1.70
2023-04-03T06:13:23.190Z,1.60
2023-04-03T06:15:54.255Z,1.60
2023-04-03T06:18:25.485Z,2.30
2023-04-03T06:20:59.294Z,3.60
2023-04-03T06:23:30.283Z,4.90
2023-04-03T06:26:01.584Z,5.90
2023-04-03T06:28:33.958Z,7.10
2023-04-03T06:31:04.880Z,7.90
2023-04-03T06:33:35.896Z,8.00
2023-04-03T06:36:11.279Z,8.00
2023-04-03T06:38:42.446Z,8.20
2023-04-03T06:41:13.354Z,8.30
2023-04-03T06:43:44.573Z,8.40
2023-04-03T06:46:20.480Z,8.70
2023-04-03T06:48:52.710Z,9.00
2023-04-03T06:51:28.776Z,9.30
2023-04-03T06:54:01.511Z,9.60
2023-04-03T06:56:32.943Z,9.70
2023-04-03T06:59:03.906Z,10.00
2023-04-03T07:01:34.964Z,10.30
2023-04-03T07:04:07.897Z,10.60
2023-04-03T07:06:41.637Z,10.30
2023-04-03T07:09:12.649Z,10.50
2023-04-03T07:11:43.827Z,10.60
2023-04-03T07:14:19.866Z,10.50
2023-04-03T07:16:56.379Z,10.60
2023-04-03T07:19:31.337Z,10.70
2023-04-03T07:22:26.782Z,10.90
2023-04-03T07:24:58.389Z,10.80
2023-04-03T07:27:29.736Z,10.30
2023-04-03T07:30:05.072Z,10.30
2023-04-03T07:32:45.120Z,10.00
2023-04-03T07:35:23.457Z,9.60
2023-04-03T07:37:58.344Z,9.00
2023-04-03T07:43:17.220Z,8.10
2023-04-03T07:45:50.749Z,7.60
2023-04-03T07:48:32.771Z,7.00
2023-04-03T07:51:04.980Z,6.30
2023-04-03T07:53:39.362Z,5.70
2023-04-03T07:56:11.329Z,5.60
2023-04-03T07:58:42.302Z,5.70
2023-04-03T08:01:13.281Z,5.70
2023-04-03T08:03:44.444Z,5.30
2023-04-03T08:06:16.960Z,5.30
2023-04-03T08:08:53.129Z,5.30
2023-04-03T08:11:27.862Z,5.40
2023-04-03T08:13:59.278Z,5.50
2023-04-03T08:16:31.278Z,5.60
2023-04-03T08:19:02.764Z,5.50
2023-04-03T08:21:33.680Z,5.40
2023-04-03T08:24:07.931Z,5.30
2023-04-03T08:26:42.100Z,5.20
2023-04-03T08:29:15.104Z,5.40
2023-04-03T08:31:46.538Z,5.50
2023-04-03T08:34:17.606Z,5.60
2023-04-03T08:36:48.803Z,5.50
2023-04-03T08:39:27.834Z,5.60
2023-04-03T08:42:04.511Z,5.60
2023-04-03T08:44:44.057Z,5.50
2023-04-03T08:47:25.627Z,5.40
2023-04-03T08:50:00.281Z,5.50
2023-04-03T08:52:39.621Z,5.50
2023-04-03T08:55:24.747Z,5.60
2023-04-03T08:58:02.442Z,5.60
2023-04-03T09:00:38.332Z,5.70
2023-04-03T09:03:11.257Z,5.80
2023-04-03T09:05:49.238Z,5.90
2023-04-03T09:08:40.827Z,5.80
2023-04-03T09:11:23.099Z,5.90
2023-04-03T09:13:59.532Z,6.10
2023-04-03T09:16:43.969Z,6.10
2023-04-03T09:19:26.133Z,6.30
2023-04-03T09:21:57.315Z,6.50
2023-04-03T09:24:29.206Z,6.70
2023-04-03T09:27:05.963Z,6.60
2023-04-03T09:29:40.534Z,6.50
2023-04-03T09:32:26.783Z,6.60
2023-04-03T09:35:03.841Z,6.80
2023-04-03T09:37:45.664Z,6.90
2023-04-03T09:40:35.895Z,6.70
2023-04-03T09:43:26.560Z,6.70
2023-04-03T09:45:59.422Z,6.80
2023-04-03T09:48:33.933Z,6.90
2023-04-03T09:51:06.189Z,7.10
2023-04-03T09:53:39.554Z,6.90
2023-04-03T09:56:26.905Z,7.20
2023-04-03T09:59:19.260Z,7.40
2023-04-03T10:02:02.664Z,7.50
2023-04-03T10:04:43.267Z,7.60
2023-04-03T10:07:34.729Z,7.50
2023-04-03T10:10:22.283Z,7.70
2023-04-03T10:13:06.960Z,7.50
2023-04-03T10:15:47.634Z,7.70
2023-04-03T10:18:33.710Z,7.60
2023-04-03T10:21:17.402Z,7.60
2023-04-03T10:24:07.171Z,7.80
2023-04-03T10:26:55.018Z,7.90
2023-04-03T10:29:45.442Z,8.40
2023-04-03T10:32:44.933Z,8.00
2023-04-03T10:35:38.107Z,8.00
2023-04-03T10:38:18.654Z,7.90
2023-04-03T10:40:56.039Z,8.10
2023-04-03T10:43:38.011Z,8.20
2023-04-03T10:46:17.266Z,8.10
2023-04-03T10:49:06.268Z,8.10
2023-04-03T10:51:44.975Z,7.90
2023-04-03T10:54:20.900Z,8.00
2023-04-03T10:57:08.700Z,8.10
2023-04-03T10:59:47.819Z,8.10
2023-04-03T11:02:30.261Z,8.20
2023-04-03T11:05:10.455Z,8.10
2023-04-03T11:07:44.782Z,8.20
2023-04-03T11:10:20.557Z,8.40
2023-04-03T11:12:56.216Z,8.60
2023-04-03T11:15:28.360Z,8.60
2023-04-03T11:18:06.190Z,8.40
2023-04-03T11:20:41.027Z,8.50
2023-04-03T11:23:22.892Z,8.60
2023-04-03T11:26:00.853Z,8.70
2023-04-03T11:28:34.658Z,8.60
2023-04-03T11:31:19.465Z,8.70
2023-04-03T11:34:02.221Z,8.80
2023-04-03T11:36:38.572Z,8.90
2023-04-03T11:39:21.403Z,9.00
2023-04-03T11:42:00.210Z,8.90
2023-04-03T11:44:40.531Z,8.80
2023-04-03T11:47:12.914Z,8.80
2023-04-03T11:50:02.256Z,8.90
2023-04-03T11:53:07.529Z,9.10
2023-04-03T11:56:01.419Z,8.90
2023-04-03T11:58:34.643Z,9.10
2023-04-03T12:01:13.775Z,9.00
2023-04-03T12:04:01.493Z,9.00
2023-04-03T12:07:05.394Z,8.90
2023-04-03T12:10:02.069Z,9.00
2023-04-03T12:12:43.007Z,9.00
2023-04-03T12:15:38.013Z,9.40
2023-04-03T12:18:53.849Z,9.00
2023-04-03T12:21:26.463Z,8.90
2023-04-03T12:24:05.280Z,8.90
2023-04-03T12:26:50.517Z,8.90
2023-04-03T12:29:26.894Z,8.80
2023-04-03T12:32:11.808Z,8.80
2023-04-03T12:34:58.802Z,8.80
2023-04-03T12:37:54.911Z,9.10
2023-04-03T12:40:32.750Z,9.30
2023-04-03T12:43:25.839Z,9.50
2023-04-03T12:46:03.289Z,9.40
2023-04-03T12:48:37.538Z,9.20
2023-04-03T12:51:09.969Z,9.20
2023-04-03T12:53:43.154Z,9.10
2023-04-03T12:56:28.999Z,9.00
2023-04-03T12:59:20.229Z,9.00
2023-04-03T13:01:59.073Z,9.10
2023-04-03T13:04:31.972Z,9.40
2023-04-03T13:07:03.622Z,9.50
2023-04-03T13:09:35.736Z,9.30
2023-04-03T13:12:14.442Z,9.30
2023-04-03T13:14:56.896Z,9.40
2023-04-03T13:17:33.216Z,9.30
2023-04-03T13:20:20.432Z,9.30
2023-04-03T13:22:57.648Z,9.40
2023-04-03T13:25:31.410Z,9.30
2023-04-03T13:28:13.190Z,9.40
2023-04-03T13:31:01.398Z,9.50
2023-04-03T13:33:38.842Z,9.70
2023-04-03T13:36:12.700Z,9.50
2023-04-03T13:38:43.750Z,9.30
2023-04-03T13:41:29.503Z,9.30
2023-04-03T13:44:19.653Z,9.30
2023-04-03T13:46:54.969Z,9.40
2023-04-03T13:49:32.756Z,9.40
2023-04-03T13:52:08.228Z,9.20
2023-04-03T13:54:44.134Z,9.30
2023-04-03T13:57:19.349Z,9.00
2023-04-03T13:59:51.089Z,9.10
2023-04-03T14:02:27.371Z,9.10
2023-04-03T14:05:02.858Z,8.90
2023-04-03T14:07:34.958Z,8.70
2023-04-03T14:10:06.203Z,8.90
2023-04-03T14:12:40.452Z,9.50
2023-04-03T14:15:20.732Z,9.60
2023-04-03T14:17:56.498Z,9.30
2023-04-03T14:20:33.871Z,9.10
2023-04-03T14:23:07.704Z,8.80
2023-04-03T14:25:41.580Z,9.30
2023-04-03T14:28:20.226Z,9.00
2023-04-03T14:30:53.197Z,9.30
2023-04-03T14:33:28.460Z,9.00
2023-04-03T14:35:59.431Z,9.00
2023-04-03T14:38:32.867Z,9.10
2023-04-03T14:41:15.486Z,9.20
2023-04-03T14:43:52.136Z,9.00
2023-04-03T14:46:28.603Z,9.00
2023-04-03T14:49:23.996Z,9.00
2023-04-03T14:51:54.896Z,9.00
2023-04-03T14:54:31.911Z,8.90
2023-04-03T14:57:04.487Z,9.00
2023-04-03T14:59:35.863Z,9.20
2023-04-03T15:02:08.333Z,9.30
2023-04-03T15:04:42.033Z,9.30
2023-04-03T15:07:13.092Z,9.20
2023-04-03T15:09:44.451Z,9.10
2023-04-03T15:12:15.773Z,9.00
2023-04-03T15:14:57.268Z,9.00
2023-04-03T15:17:32.019Z,8.90
2023-04-03T15:20:06.652Z,8.90
2023-04-03T15:22:39.652Z,8.90
2023-04-03T15:25:12.139Z,8.90
2023-04-03T15:27:44.910Z,8.70
2023-04-03T15:30:21.087Z,8.70
2023-04-03T15:32:54.380Z,8.90
2023-04-03T15:35:28.358Z,8.80
2023-04-03T15:38:02.491Z,8.70
2023-04-03T15:40:33.405Z,8.60
2023-04-03T15:43:04.642Z,8.60
2023-04-03T15:45:37.621Z,8.60
2023-04-03T15:48:09.550Z,8.70
2023-04-03T15:50:46.830Z,8.80
2023-04-03T15:53:17.871Z,8.70
2023-04-03T15:55:48.929Z,8.80
2023-04-03T15:58:19.928Z,8.80
2023-04-03T16:00:51.050Z,8.50
2023-04-03T16:03:27.154Z,8.60
2023-04-03T16:06:02.690Z,9.00
2023-04-03T16:08:33.904Z,8.70
2023-04-03T16:11:05.025Z,8.60
2023-04-03T16:13:36.366Z,8.60
2023-04-03T16:16:08.909Z,8.60
2023-04-03T16:18:40.294Z,8.50
2023-04-03T16:21:15.056Z,8.70
2023-04-03T16:23:47.552Z,8.60
2023-04-03T16:26:21.250Z,8.50
2023-04-03T16:28:52.115Z,8.50
2023-04-03T16:31:23.813Z,8.10
2023-04-03T16:33:54.725Z,8.10
2023-04-03T16:36:28.955Z,8.10
2023-04-03T16:38:59.862Z,8.20
2023-04-03T16:41:30.785Z,8.20
2023-04-03T16:44:01.616Z,8.20
2023-04-03T16:46:35.664Z,8.00
2023-04-03T16:49:09.742Z,8.00
2023-04-03T16:51:43.244Z,8.00
2023-04-03T16:54:17.329Z,8.10
2023-04-03T16:56:48.208Z,8.00
2023-04-03T16:59:19.460Z,8.00
2023-04-03T17:01:50.602Z,8.00
2023-04-03T17:04:21.802Z,7.90
2023-04-03T17:06:55.904Z,7.90
2023-04-03T17:09:27.102Z,7.70
2023-04-03T17:11:58.006Z,7.70
2023-04-03T17:14:29.165Z,7.70
2023-04-03T17:17:00.436Z,7.70
2023-04-03T17:19:32.223Z,7.80
2023-04-03T17:22:05.815Z,7.70
2023-04-03T17:24:37.114Z,7.60
2023-04-03T17:27:09.051Z,7.50
2023-04-03T17:29:40.078Z,7.40
2023-04-03T17:32:11.299Z,7.30
2023-04-03T17:34:42.381Z,7.80
2023-04-03T17:37:16.335Z,7.30
2023-04-03T17:39:47.261Z,7.30
2023-04-03T17:42:18.490Z,7.20
2023-04-03T17:44:49.520Z,7.20
2023-04-03T17:47:20.465Z,7.20
2023-04-03T17:49:53.957Z,7.10
2023-04-03T17:52:28.609Z,7.00
2023-04-03T17:54:59.600Z,7.00
2023-04-03T17:57:31.701Z,6.90
2023-04-03T18:00:02.662Z,6.90
2023-04-03T18:02:33.950Z,6.90
2023-04-03T18:05:05.701Z,6.80
2023-04-03T18:07:43.028Z,6.80
2023-04-03T18:10:15.154Z,6.80
2023-04-03T18:12:46.325Z,6.80
2023-04-03T18:15:17.202Z,6.70
2023-04-03T18:17:51.050Z,6.70
2023-04-03T18:20:25.110Z,6.60
2023-04-03T18:22:58.812Z,6.60
2023-04-03T18:28:06.660Z,6.60
2023-04-03T18:30:38.507Z,6.50
2023-04-03T18:33:09.590Z,6.50
2023-04-03T18:35:40.595Z,6.40
2023-04-03T18:38:14.385Z,6.40
2023-04-03T18:40:47.570Z,6.40
2023-04-03T18:43:21.288Z,6.30
2023-04-03T18:45:52.237Z,6.30
2023-04-03T18:48:24.961Z,6.30
2023-04-03T18:50:57.108Z,6.30
2023-04-03T18:53:31.179Z,6.70
2023-04-03T18:56:02.115Z,6.20
2023-04-03T18:58:35.963Z,6.20
2023-04-03T19:01:08.393Z,6.10
2023-04-03T19:03:40.709Z,6.10
2023-04-03T19:06:11.969Z,6.00
2023-04-03T19:08:45.793Z,6.00
2023-04-03T19:11:16.767Z,5.90
2023-04-03T19:14:04.415Z,5.80
2023-04-03T19:16:39.616Z,5.90
2023-04-03T19:19:10.800Z,5.80
2023-04-03T19:21:42.312Z,5.80
2023-04-03T19:24:16.330Z,5.80
2023-04-03T19:26:47.660Z,5.70
2023-04-03T19:29:19.795Z,5.70
2023-04-03T19:31:50.800Z,5.70
2023-04-03T19:34:21.921Z,5.60
2023-04-03T19:36:52.996Z,5.60
2023-04-03T19:39:26.600Z,5.60
2023-04-03T19:41:57.472Z,5.60
2023-04-03T19:44:28.574Z,5.50
2023-04-03T19:46:59.437Z,5.50
2023-04-03T19:49:31.080Z,5.50
2023-04-03T19:52:02.064Z,5.50
2023-04-03T19:54:39.054Z,5.40
2023-04-03T19:57:10.377Z,5.40
2023-04-03T19:59:41.471Z,5.40
2023-04-03T20:02:15.186Z,5.30
2023-04-03T20:04:46.343Z,5.30
2023-04-03T20:07:17.611Z,5.30
2023-04-03T20:09:51.260Z,5.20
2023-04-03T20:12:22.237Z,5.20
2023-04-03T20:14:53.164Z,5.20
2023-04-03T20:17:24.111Z,5.20
2023-04-03T20:20:01.537Z,5.20
2023-04-03T20:22:33.076Z,5.10
2023-04-03T20:25:07.784Z,5.10
2023-04-03T20:27:40.329Z,5.00
2023-04-03T20:30:16.771Z,5.00
2023-04-03T20:32:50.300Z,5.00
2023-04-03T20:35:22.326Z,5.00
2023-04-03T20:37:53.257Z,5.00
2023-04-03T20:40:27.597Z,5.00
2023-04-03T20:43:01.606Z,5.00
2023-04-03T20:45:35.007Z,4.90
2023-04-03T20:48:06.791Z,4.90
2023-04-03T20:50:38.662Z,4.90
2023-04-03T20:53:10.772Z,4.80
2023-04-03T20:55:44.748Z,4.80
2023-04-03T20:58:15.672Z,4.70
2023-04-03T21:00:46.662Z,4.60
2023-04-03T21:03:20.441Z,4.70
2023-04-03T21:05:53.720Z,4.70
2023-04-03T21:08:54.690Z,4.60
2023-04-03T21:11:56.644Z,4.60
2023-04-03T21:14:58.337Z,4.60
2023-04-03T21:17:33.522Z,4.50
2023-04-03T21:20:08.308Z,4.30
2023-04-03T21:22:43.318Z,4.40
2023-04-03T21:25:14.865Z,4.40
2023-04-03T21:27:48.828Z,4.20
2023-04-03T21:30:20.013Z,4.30
2023-04-03T21:32:51.559Z,4.60
2023-04-03T21:35:27.427Z,4.20
2023-04-03T21:37:58.272Z,4.20
2023-04-03T21:40:32.008Z,4.50
2023-04-03T21:43:02.953Z,3.80
2023-04-03T21:45:35.163Z,4.00
2023-04-03T21:48:08.501Z,3.90
2023-04-03T21:50:42.456Z,3.80
2023-04-03T21:53:13.384Z,3.70
2023-04-03T21:55:44.349Z,3.60
2023-04-03T21:58:15.218Z,3.60
2023-04-03T22:00:46.255Z,3.60
2023-04-03T22:03:23.638Z,3.60
2023-04-03T22:06:01.516Z,3.50
2023-04-03T22:08:35.035Z,3.40
2023-04-03T22:11:07.253Z,3.30
2023-04-03T22:13:39.112Z,3.50
2023-04-03T22:16:12.201Z,3.30
2023-04-03T22:18:43.116Z,3.30
2023-04-03T22:21:21.624Z,3.20
2023-04-03T22:23:54.830Z,3.30
2023-04-03T22:26:26.524Z,3.10
2023-04-03T22:28:57.566Z,3.00
2023-04-03T22:31:28.614Z,3.00
2023-04-03T22:34:04.278Z,2.90
2023-04-03T22:36:41.544Z,2.90
2023-04-03T22:39:17.559Z,2.90
2023-04-03T22:41:48.445Z,2.90
2023-04-03T22:44:19.328Z,2.80
2023-04-03T22:46:54.802Z,2.70
2023-04-03T22:49:26.236Z,2.70
2023-04-03T22:51:59.723Z,2.60
2023-04-03T22:54:30.724Z,2.50
2023-04-03T22:57:01.892Z,2.50
2023-04-03T22:59:33.114Z,2.40
2023-04-03T23:02:04.172Z,2.40
2023-04-03T23:04:35.271Z,2.40
2023-04-03T23:07:09.112Z,2.40
2023-04-03T23:09:40.080Z,2.40
2023-04-03T23:12:11.890Z,2.40
2023-04-03T23:14:42.822Z,2.30
2023-04-03T23:17:13.961Z,2.30
2023-04-03T23:19:44.867Z,2.20
2023-04-03T23:22:18.622Z,2.20
2023-04-03T23:24:49.512Z,2.20
2023-04-03T23:27:20.860Z,2.10
2023-04-03T23:29:51.973Z,2.10
2023-04-03T23:32:25.719Z,2.00
2023-04-03T23:34:56.846Z,2.10
2023-04-03T23:37:30.382Z,2.00
2023-04-03T23:40:02.307Z,2.00
2023-04-03T23:42:33.303Z,2.00
2023-04-03T23:45:04.192Z,2.00
2023-04-03T23:47:35.152Z,1.90
2023-04-03T23:50:06.205Z,2.00
2023-04-03T23:52:39.898Z,1.90
2023-04-03T23:55:11.231Z,1.80
2023-04-03T23:57:44.109Z,1.80
